Port Washington, WI

11:10 AM CST on December 04, 2016 (GMT -0600)
Grand Ave. | | Change Station
Active Advisory: Winter Weather Advisory

Elev 721 ft 43.39 °N, 87.89 °W | Updated 2 seconds ago

Light Snow
Light Snow
32.6 °F
Feels Like 33 °F
N
0.0
Wind Variable Wind from SSE
Gusts 0.0 mph

Today
High -- | Low -- °F
--% Chance of Precip.
Yesterday
High -- | Low -- °F
Precip. -- in
Pressure 30.04 in
Visibility 0.5 miles
Clouds Mostly Cloudy 500 ft
Overcast 1000 ft
Windchill 33 °F
Dew Point 30 °F
Humidity 91%
Rainfall 0.00 in
Snow Depth Not available.
7:07 AM 4:15 PM
Waxing Crescent, 24% visible
METAR KETB 041655Z AUTO 15004KT 1/2SM -SN BKN005 OVC010 M01/M01 A3004 RMK AO2 P0002
Pressure 30.04 in
Visibility 0.5 miles
Clouds Mostly Cloudy 500 ft
Overcast 1000 ft
Windchill 33 °F
Dew Point 30 °F
Humidity 91%
Rainfall 0.00 in
Snow Depth Not available.
7:07 AM 4:15 PM
Waxing Crescent, 24% visible
METAR KETB 041655Z AUTO 15004KT 1/2SM -SN BKN005 OVC010 M01/M01 A3004 RMK AO2 P0002

10-Day Weather Forecast

Almanac

Astronomy

Dec. 04, 2016 Rise Set
Actual Time
Civil Twilight
Nautical Twilight
Astronomical Twilight
Moon
Length of Visible Light
Length of Day
Tomorrow will be .
, % of the Moon is Illuminated

Today's Extremes

State Highs State Lows

Community

WunderPhotos

Upload Photos

1,955,609 photos uploaded!

WunderBlog® & News

Nearby

Air Quality

  Air Quality AQ Index Pollutant
Not available.

Snow Depth

Station Depth Elevation

Earthquake Activity

City Distance Mag. Time & Date
Minimum magnitude displayed is 2.5.

Coastal Water Temperatures

Place Temperature

Stations

Nearby Weather Stations

Station Location Temp. Windchill Dew Point Humidity Wind Precip. Elev Updated Type
                   

Watches & Warnings

Winter Weather Advisory
Issued: 6:51 AM CST Dec. 4, 2016 – National Weather Service

... Winter Weather Advisory remains in effect until 6 PM CST this
evening...

A Winter Weather Advisory remains in effect until 6 PM CST this
evening.

* Timing... steady snow beginning later this morning... tapering
off late in the afternoon or early evening.

* Snow accumulations... 2 to 4 inches.

* Winds... south to southeast 5 to 15 mph.

* Impacts... reduced visibility and slippery spots on untreated
roads creating hazardous travel.

Precautionary/preparedness actions...

A Winter Weather Advisory for snow means that periods of snow
will cause primarily travel difficulties. Be prepared for snow
covered roads and limited visibilities... and use caution while
driving.


Kavinsky